createdAt,value
2023-02-24T00:01:59.697Z,75.93
2023-02-24T00:04:29.433Z,76.07
2023-02-24T00:06:56.125Z,76.04
2023-02-24T00:09:28.560Z,76.00
2023-02-24T00:12:00.560Z,76.10
2023-02-24T00:14:30.441Z,76.06
2023-02-24T00:17:00.807Z,76.09
2023-02-24T00:19:33.486Z,76.10
2023-02-24T00:22:02.061Z,76.16
2023-02-24T00:24:28.789Z,75.98
2023-02-24T00:26:59.079Z,75.97
2023-02-24T00:29:28.306Z,76.06
2023-02-24T00:32:00.146Z,75.97
2023-02-24T00:34:29.737Z,76.16
2023-02-24T00:36:57.710Z,75.93
2023-02-24T00:39:33.081Z,76.07
2023-02-24T00:42:04.445Z,76.01
2023-02-24T00:44:44.322Z,76.02
2023-02-24T00:47:11.990Z,76.07
2023-02-24T00:49:41.628Z,76.16
2023-02-24T00:52:17.766Z,76.12
2023-02-24T00:54:47.248Z,76.11
2023-02-24T00:57:18.060Z,76.14
2023-02-24T00:59:47.047Z,76.15
2023-02-24T01:02:14.945Z,76.13
2023-02-24T01:04:43.811Z,76.07
2023-02-24T01:07:11.417Z,76.30
2023-02-24T01:09:40.871Z,76.10
2023-02-24T01:12:28.928Z,76.14
2023-02-24T01:14:58.293Z,76.03
2023-02-24T01:17:25.039Z,76.14
2023-02-24T01:19:51.850Z,76.03
2023-02-24T01:22:20.306Z,76.19
2023-02-24T01:24:47.906Z,76.16
2023-02-24T01:27:19.300Z,76.00
2023-02-24T01:29:47.135Z,76.00
2023-02-24T01:32:20.119Z,76.19
2023-02-24T01:34:50.818Z,76.17
2023-02-24T01:37:18.653Z,76.39
2023-02-24T01:39:45.986Z,76.25
2023-02-24T01:42:18.910Z,76.26
2023-02-24T01:44:47.069Z,76.47
2023-02-24T01:47:17.834Z,76.46
2023-02-24T01:49:47.147Z,76.34
2023-02-24T01:52:24.257Z,76.66
2023-02-24T01:55:08.711Z,76.63
2023-02-24T01:57:38.379Z,76.60
2023-02-24T02:00:18.830Z,76.65
2023-02-24T02:02:52.034Z,76.73
2023-02-24T02:05:18.880Z,76.77
2023-02-24T02:07:45.853Z,76.90
2023-02-24T02:10:13.464Z,77.02
2023-02-24T02:12:45.488Z,77.05
2023-02-24T02:15:19.784Z,77.08
2023-02-24T02:18:27.458Z,77.35
2023-02-24T02:21:06.520Z,77.40
2023-02-24T02:23:50.590Z,77.43
2023-02-24T02:26:20.709Z,77.32
2023-02-24T02:28:54.583Z,77.44
2023-02-24T02:31:46.118Z,77.61
2023-02-24T02:34:19.625Z,77.47
2023-02-24T02:37:11.751Z,77.56
2023-02-24T02:40:07.614Z,77.63
2023-02-24T02:42:50.849Z,77.95
2023-02-24T02:45:24.207Z,78.07
2023-02-24T02:48:23.964Z,78.26
2023-02-24T02:51:03.646Z,78.62
2023-02-24T02:53:39.335Z,79.20
2023-02-24T02:56:31.527Z,79.47
2023-02-24T02:59:00.421Z,79.93
2023-02-24T03:01:33.573Z,79.80
2023-02-24T03:04:05.084Z,79.99
2023-02-24T03:06:34.630Z,80.46
2023-02-24T03:09:11.979Z,80.55
2023-02-24T03:11:41.009Z,80.83
2023-02-24T03:14:12.310Z,80.98
2023-02-24T03:16:43.220Z,81.23
2023-02-24T03:19:13.182Z,81.61
2023-02-24T03:21:57.685Z,81.77
2023-02-24T03:24:24.484Z,82.34
2023-02-24T03:27:11.295Z,82.15
2023-02-24T03:29:48.234Z,82.45
2023-02-24T03:32:32.737Z,82.60
2023-02-24T03:35:13.162Z,82.96
2023-02-24T03:37:41.197Z,83.04
2023-02-24T03:40:13.935Z,83.01
2023-02-24T03:42:45.725Z,83.30
2023-02-24T03:45:13.194Z,83.27
2023-02-24T03:47:41.053Z,83.63
2023-02-24T03:50:15.704Z,83.78
2023-02-24T03:52:51.607Z,83.68
2023-02-24T03:55:45.725Z,83.91
2023-02-24T03:58:27.717Z,84.00
2023-02-24T04:00:55.311Z,84.06
2023-02-24T04:03:27.901Z,84.25
2023-02-24T04:06:08.390Z,84.25
2023-02-24T04:09:00.860Z,84.34
2023-02-24T04:11:43.609Z,84.44
2023-02-24T04:14:34.276Z,84.49
2023-02-24T04:17:12.894Z,84.82
2023-02-24T04:19:43.921Z,84.95
2023-02-24T04:22:15.032Z,84.97
2023-02-24T04:24:44.215Z,84.99
2023-02-24T04:27:12.761Z,85.19
2023-02-24T04:29:51.473Z,85.43
2023-02-24T04:32:24.680Z,85.37
2023-02-24T04:34:51.969Z,85.43
2023-02-24T04:37:22.499Z,85.49
2023-02-24T04:39:50.320Z,85.67
2023-02-24T04:42:23.199Z,85.84
2023-02-24T04:44:50.068Z,85.74
2023-02-24T04:47:16.721Z,86.10
2023-02-24T04:49:43.962Z,85.97
2023-02-24T04:52:11.514Z,86.19
2023-02-24T04:54:38.288Z,86.30
2023-02-24T04:57:06.733Z,86.36
2023-02-24T04:59:33.380Z,86.32
2023-02-24T05:02:01.240Z,86.28
2023-02-24T05:04:29.525Z,86.45
2023-02-24T05:06:57.055Z,86.57
2023-02-24T05:09:23.966Z,86.69
2023-02-24T05:11:51.845Z,86.69
2023-02-24T05:14:24.498Z,86.86
2023-02-24T05:16:51.428Z,87.17
2023-02-24T05:19:38.559Z,87.13
2023-02-24T05:22:06.519Z,87.33
2023-02-24T05:24:34.130Z,87.36
2023-02-24T05:27:03.180Z,87.62
2023-02-24T05:29:34.310Z,87.56
2023-02-24T05:32:03.469Z,87.62
2023-02-24T05:34:31.949Z,87.62
2023-02-24T05:37:01.064Z,87.96
2023-02-24T05:39:27.863Z,87.85
2023-02-24T05:41:56.653Z,88.05
2023-02-24T05:44:25.459Z,87.90
2023-02-24T05:46:58.043Z,87.94
2023-02-24T05:49:32.458Z,88.01
2023-02-24T05:52:06.777Z,88.18
2023-02-24T05:54:40.049Z,88.12
2023-02-24T05:57:13.255Z,88.08
2023-02-24T05:59:41.122Z,88.08
2023-02-24T06:02:13.229Z,88.18
2023-02-24T06:04:50.474Z,88.15
2023-02-24T06:07:18.553Z,88.08
2023-02-24T06:09:49.327Z,88.36
2023-02-24T06:12:17.631Z,88.33
2023-02-24T06:14:44.608Z,88.22
2023-02-24T06:17:11.457Z,88.42
2023-02-24T06:19:39.233Z,88.43
2023-02-24T06:22:10.372Z,88.42
2023-02-24T06:24:37.130Z,88.36
2023-02-24T06:27:10.023Z,88.44
2023-02-24T06:29:37.473Z,88.62
2023-02-24T06:32:10.468Z,88.80
2023-02-24T06:34:38.606Z,88.68
2023-02-24T06:37:09.126Z,88.68
2023-02-24T06:39:36.913Z,88.81
2023-02-24T06:42:04.901Z,88.73
2023-02-24T06:44:33.355Z,88.75
2023-02-24T06:47:00.572Z,88.73
2023-02-24T06:49:28.026Z,88.78
2023-02-24T06:51:57.040Z,88.72
2023-02-24T06:54:27.789Z,88.94
2023-02-24T06:56:55.083Z,88.93
2023-02-24T06:59:22.018Z,89.30
2023-02-24T07:01:48.953Z,89.26
2023-02-24T07:04:16.564Z,89.22
2023-02-24T07:06:48.744Z,89.09
2023-02-24T07:09:18.227Z,89.17
2023-02-24T07:11:51.334Z,89.26
2023-02-24T07:14:23.861Z,89.23
2023-02-24T07:16:54.068Z,89.42
2023-02-24T07:19:28.630Z,89.45
2023-02-24T07:21:59.516Z,89.25
2023-02-24T07:24:39.441Z,89.33
2023-02-24T07:27:21.384Z,89.46
2023-02-24T07:29:53.008Z,89.47
2023-02-24T07:32:25.017Z,89.37
2023-02-24T07:34:52.571Z,89.38
2023-02-24T07:37:20.012Z,89.31
2023-02-24T07:39:49.048Z,89.57
2023-02-24T07:42:15.744Z,89.61
2023-02-24T07:44:45.833Z,89.58
2023-02-24T07:47:15.137Z,89.60
2023-02-24T07:49:41.884Z,89.74
2023-02-24T07:52:10.894Z,89.78
2023-02-24T07:54:38.657Z,89.65
2023-02-24T07:57:05.867Z,89.64
2023-02-24T07:59:34.576Z,89.55
2023-02-24T08:02:04.015Z,89.67
2023-02-24T08:04:32.463Z,89.84
2023-02-24T08:07:02.176Z,89.84
2023-02-24T08:10:06.742Z,89.82
2023-02-24T08:12:34.610Z,89.75
2023-02-24T08:15:08.366Z,89.70
2023-02-24T08:17:35.117Z,89.88
2023-02-24T08:20:14.112Z,90.04
2023-02-24T08:22:46.327Z,90.00
2023-02-24T08:25:17.722Z,89.79
2023-02-24T08:28:06.373Z,89.89
2023-02-24T08:30:39.774Z,89.88
2023-02-24T08:33:09.353Z,89.99
2023-02-24T08:35:38.408Z,90.14
2023-02-24T08:38:27.114Z,90.12
2023-02-24T08:40:55.260Z,90.13
2023-02-24T08:43:35.244Z,90.31
2023-02-24T08:46:32.157Z,90.32
2023-02-24T08:49:02.178Z,90.20
2023-02-24T08:51:34.322Z,90.03
2023-02-24T08:54:10.543Z,90.28
2023-02-24T08:56:42.673Z,90.20
2023-02-24T08:59:28.543Z,90.09
2023-02-24T09:02:17.000Z,90.17
2023-02-24T09:04:59.204Z,90.14
2023-02-24T09:07:40.074Z,90.14
2023-02-24T09:10:18.516Z,90.00
2023-02-24T09:12:46.150Z,90.15
2023-02-24T09:15:16.183Z,90.10
2023-02-24T09:17:44.582Z,90.10
2023-02-24T09:20:35.695Z,90.13
2023-02-24T09:23:03.796Z,90.17
2023-02-24T09:25:40.969Z,90.16
2023-02-24T09:28:18.194Z,90.28
2023-02-24T09:30:54.861Z,90.13
2023-02-24T09:33:28.716Z,90.17
2023-02-24T09:36:08.946Z,90.17
2023-02-24T09:39:01.836Z,90.12
2023-02-24T09:42:17.312Z,90.20
2023-02-24T09:44:48.607Z,90.21
2023-02-24T09:47:30.424Z,90.33
2023-02-24T09:50:07.910Z,90.27
2023-02-24T09:52:40.530Z,90.30
2023-02-24T09:55:24.509Z,90.38
2023-02-24T09:58:12.869Z,90.49
2023-02-24T10:00:44.573Z,90.41
2023-02-24T10:03:40.824Z,90.40
2023-02-24T10:06:26.353Z,90.44
2023-02-24T10:09:13.774Z,90.40
2023-02-24T10:12:07.265Z,90.35
2023-02-24T10:14:44.391Z,90.32
2023-02-24T10:17:23.950Z,90.37
2023-02-24T10:20:13.514Z,90.20
2023-02-24T10:22:53.223Z,90.13
2023-02-24T10:25:41.167Z,90.18
2023-02-24T10:28:21.694Z,89.91
2023-02-24T10:31:09.642Z,89.75
2023-02-24T10:33:44.835Z,89.65
2023-02-24T10:36:17.238Z,89.36
2023-02-24T10:38:45.069Z,89.39
2023-02-24T10:41:16.556Z,89.28
2023-02-24T10:43:55.470Z,89.00
2023-02-24T10:46:42.165Z,89.16
2023-02-24T10:49:15.686Z,89.15
2023-02-24T10:51:50.695Z,88.97
2023-02-24T10:54:44.064Z,88.81
2023-02-24T10:57:36.023Z,88.87
2023-02-24T11:00:18.258Z,88.85
2023-02-24T11:03:06.590Z,88.99
2023-02-24T11:05:45.400Z,88.90
2023-02-24T11:08:36.164Z,89.05
2023-02-24T11:11:26.105Z,88.90
2023-02-24T11:14:12.599Z,88.91
2023-02-24T11:17:10.309Z,88.87
2023-02-24T11:19:45.784Z,88.94
2023-02-24T11:22:19.880Z,88.96
2023-02-24T11:24:49.673Z,89.00
2023-02-24T11:27:23.075Z,89.05
2023-02-24T11:29:52.869Z,89.04
2023-02-24T11:32:34.799Z,89.07
2023-02-24T11:35:22.048Z,89.09
2023-02-24T11:38:05.443Z,89.44
2023-02-24T11:40:39.510Z,89.54
2023-02-24T11:43:13.869Z,89.52
2023-02-24T11:45:44.591Z,89.30
2023-02-24T11:48:38.394Z,89.37
2023-02-24T11:51:17.842Z,89.44
2023-02-24T11:53:53.204Z,89.45
2023-02-24T11:56:38.137Z,89.36
2023-02-24T11:59:19.794Z,89.47
2023-02-24T12:01:53.026Z,89.31
2023-02-24T12:04:25.756Z,89.23
2023-02-24T12:07:14.030Z,88.86
2023-02-24T12:10:16.013Z,88.60
2023-02-24T12:13:03.865Z,88.62
2023-02-24T12:15:52.629Z,87.93
2023-02-24T12:18:27.234Z,87.78
2023-02-24T12:20:59.955Z,87.98
2023-02-24T12:23:39.522Z,87.48
2023-02-24T12:26:09.372Z,87.36
2023-02-24T12:28:56.344Z,86.94
2023-02-24T12:31:38.508Z,86.98
2023-02-24T12:34:08.348Z,86.91
2023-02-24T12:37:07.017Z,86.74
2023-02-24T12:39:53.523Z,86.68
2023-02-24T12:42:31.024Z,86.75
2023-02-24T12:45:16.457Z,86.62
2023-02-24T12:47:58.526Z,86.60
2023-02-24T12:50:47.088Z,86.51
2023-02-24T12:53:26.085Z,86.39
2023-02-24T12:56:05.774Z,86.32
2023-02-24T12:58:36.632Z,86.48
2023-02-24T13:01:34.491Z,86.49
2023-02-24T13:04:23.131Z,86.53
2023-02-24T13:07:30.811Z,86.66
2023-02-24T13:10:12.089Z,86.24
2023-02-24T13:12:51.631Z,86.00
2023-02-24T13:15:24.971Z,85.53
2023-02-24T13:17:55.741Z,85.48
2023-02-24T13:20:33.605Z,85.48
2023-02-24T13:23:03.059Z,85.47
2023-02-24T13:25:39.226Z,85.12
2023-02-24T13:28:26.975Z,85.06
2023-02-24T13:31:12.059Z,85.35
2023-02-24T13:33:44.181Z,85.49
2023-02-24T13:36:15.394Z,85.80
2023-02-24T13:38:47.389Z,85.79
2023-02-24T13:41:26.525Z,85.30
2023-02-24T13:44:01.414Z,84.99
2023-02-24T13:46:49.009Z,84.75
2023-02-24T13:49:22.446Z,84.73
2023-02-24T13:51:59.222Z,84.39
2023-02-24T13:54:25.852Z,83.94
2023-02-24T13:56:55.957Z,84.06
2023-02-24T13:59:52.616Z,84.05
2023-02-24T14:02:22.426Z,83.79
2023-02-24T14:04:55.099Z,83.08
2023-02-24T14:07:24.707Z,82.66
2023-02-24T14:09:58.810Z,82.90
2023-02-24T14:12:33.666Z,82.45
2023-02-24T14:15:02.936Z,82.45
2023-02-24T14:17:33.108Z,82.40
2023-02-24T14:20:09.029Z,81.94
2023-02-24T14:22:52.548Z,81.73
2023-02-24T14:25:21.606Z,81.85
2023-02-24T14:27:52.101Z,81.59
2023-02-24T14:30:35.087Z,81.52
2023-02-24T14:33:04.214Z,81.00
2023-02-24T14:35:46.616Z,80.34
2023-02-24T14:38:39.670Z,79.61
2023-02-24T14:41:19.318Z,79.77
2023-02-24T14:43:46.299Z,79.71
2023-02-24T14:46:13.122Z,79.83
2023-02-24T14:48:39.981Z,80.15
2023-02-24T14:51:11.903Z,79.72
2023-02-24T14:53:49.014Z,79.40
2023-02-24T14:56:17.851Z,78.75
2023-02-24T14:58:53.045Z,78.50
2023-02-24T15:01:49.317Z,78.61
2023-02-24T15:04:32.238Z,78.33
2023-02-24T15:07:02.823Z,78.23
2023-02-24T15:09:36.599Z,78.01
2023-02-24T15:12:20.253Z,77.19
2023-02-24T15:15:01.318Z,77.58
2023-02-24T15:17:28.895Z,77.22
2023-02-24T15:19:55.649Z,77.43
2023-02-24T15:22:28.809Z,77.72
2023-02-24T15:25:12.519Z,77.44
2023-02-24T15:27:59.940Z,77.28
2023-02-24T15:30:34.094Z,77.17
2023-02-24T15:33:07.703Z,77.48
2023-02-24T15:35:38.460Z,77.53
2023-02-24T15:38:05.454Z,77.85
2023-02-24T15:40:33.000Z,78.14
2023-02-24T15:43:16.050Z,78.31
2023-02-24T15:46:06.723Z,78.36
2023-02-24T15:49:30.822Z,78.84
2023-02-24T15:53:20.834Z,79.00
2023-02-24T15:56:19.935Z,79.03
2023-02-24T15:59:26.499Z,78.96
2023-02-24T16:02:13.661Z,78.87
2023-02-24T16:11:06.542Z,78.59
2023-02-24T16:17:39.615Z,78.38
2023-02-24T16:25:02.554Z,78.76
2023-02-24T16:28:05.608Z,78.87
2023-02-24T16:30:48.974Z,78.82
2023-02-24T16:38:12.549Z,78.87
2023-02-24T16:41:41.799Z,78.82
2023-02-24T16:50:15.061Z,79.16
2023-02-24T16:57:11.748Z,79.04
2023-02-24T17:03:06.874Z,78.89
2023-02-24T17:06:13.707Z,78.86
2023-02-24T17:08:56.000Z,78.65
2023-02-24T17:12:02.033Z,78.78
2023-02-24T17:14:53.981Z,78.69
2023-02-24T17:17:51.112Z,78.81
2023-02-24T17:20:44.464Z,78.48
2023-02-24T17:23:45.694Z,78.44
2023-02-24T17:26:39.969Z,78.48
2023-02-24T17:29:20.599Z,78.52
2023-02-24T17:32:27.754Z,78.56
2023-02-24T17:39:06.595Z,78.75
2023-02-24T17:43:05.743Z,78.80
2023-02-24T17:45:57.156Z,78.79
2023-02-24T17:48:24.109Z,79.10
2023-02-24T17:50:51.440Z,79.03
2023-02-24T17:53:18.339Z,78.76
2023-02-24T17:56:01.381Z,78.76
2023-02-24T17:58:29.801Z,79.05
2023-02-24T18:00:56.967Z,79.25
2023-02-24T18:03:24.306Z,79.20
2023-02-24T18:06:02.991Z,79.25
2023-02-24T18:08:32.360Z,79.25
2023-02-24T18:10:59.405Z,79.25
2023-02-24T18:13:28.592Z,79.58
2023-02-24T18:15:56.210Z,79.47
2023-02-24T18:18:25.069Z,79.85
2023-02-24T18:20:52.121Z,80.02
2023-02-24T18:23:19.415Z,80.02
2023-02-24T18:25:46.266Z,80.00
2023-02-24T18:28:13.106Z,79.99
2023-02-24T18:30:40.005Z,80.17
2023-02-24T18:33:06.979Z,80.29
2023-02-24T18:35:34.261Z,80.19
2023-02-24T18:38:02.238Z,79.92
2023-02-24T18:40:29.391Z,79.91
2023-02-24T18:42:56.463Z,80.17
2023-02-24T18:45:23.948Z,80.13
2023-02-24T18:47:51.554Z,80.09
2023-02-24T18:50:20.193Z,80.12
2023-02-24T18:52:47.902Z,80.33
2023-02-24T18:55:14.950Z,80.44
2023-02-24T18:57:42.614Z,80.23
2023-02-24T19:00:12.623Z,80.34
2023-02-24T19:02:40.859Z,80.56
2023-02-24T19:05:08.286Z,80.38
2023-02-24T19:07:35.169Z,80.50
2023-02-24T19:10:02.191Z,80.40
2023-02-24T19:12:29.120Z,80.60
2023-02-24T19:14:55.978Z,80.32
2023-02-24T19:17:22.826Z,80.19
2023-02-24T19:19:50.187Z,80.30
2023-02-24T19:22:16.983Z,80.38
2023-02-24T19:24:44.514Z,80.29
2023-02-24T19:27:11.261Z,80.39
2023-02-24T19:29:37.971Z,80.32
2023-02-24T19:32:04.995Z,80.52
2023-02-24T19:34:31.874Z,80.35
2023-02-24T19:36:58.624Z,80.48
2023-02-24T19:39:25.503Z,80.75
2023-02-24T19:41:52.920Z,80.88
2023-02-24T19:44:19.859Z,81.08
2023-02-24T19:46:47.017Z,81.11
2023-02-24T19:49:13.668Z,80.94
2023-02-24T19:51:40.404Z,81.06
2023-02-24T19:54:07.217Z,81.01
2023-02-24T19:56:36.206Z,81.13
2023-02-24T19:59:10.818Z,80.94
2023-02-24T20:01:37.838Z,81.05
2023-02-24T20:04:05.245Z,80.93
2023-02-24T20:06:40.662Z,81.02
2023-02-24T20:09:10.515Z,80.94
2023-02-24T20:11:38.606Z,80.81
2023-02-24T20:14:07.936Z,81.03
2023-02-24T20:16:36.910Z,80.88
2023-02-24T20:19:05.467Z,80.95
2023-02-24T20:21:33.408Z,80.88
2023-02-24T20:24:05.335Z,81.07
2023-02-24T20:26:32.943Z,81.08
2023-02-24T20:29:00.434Z,81.16
2023-02-24T20:31:27.843Z,81.52
2023-02-24T20:33:55.853Z,81.84
2023-02-24T20:36:28.283Z,81.97
2023-02-24T20:38:57.174Z,82.34
2023-02-24T20:41:26.073Z,82.61
2023-02-24T20:43:54.674Z,82.78
2023-02-24T20:46:30.255Z,82.94
2023-02-24T20:49:03.498Z,83.12
2023-02-24T20:51:32.090Z,83.11
2023-02-24T20:54:08.490Z,83.14
2023-02-24T20:56:37.419Z,83.18
2023-02-24T20:59:12.405Z,83.13
2023-02-24T21:01:41.388Z,83.38
2023-02-24T21:04:08.275Z,83.49
2023-02-24T21:06:36.576Z,83.37
2023-02-24T21:09:03.868Z,83.61
2023-02-24T21:11:32.191Z,83.70
2023-02-24T21:13:59.522Z,83.75
2023-02-24T21:16:27.370Z,83.51
2023-02-24T21:18:55.711Z,83.63
2023-02-24T21:21:22.667Z,83.77
2023-02-24T21:23:49.980Z,83.74
2023-02-24T21:26:17.238Z,83.77
2023-02-24T21:28:44.380Z,83.75
2023-02-24T21:31:14.330Z,83.98
2023-02-24T21:33:53.762Z,83.80
2023-02-24T21:36:39.929Z,83.69
2023-02-24T21:39:07.092Z,83.74
2023-02-24T21:41:35.880Z,83.89
2023-02-24T21:44:03.298Z,83.89
2023-02-24T21:46:30.601Z,83.90
2023-02-24T21:48:58.490Z,83.98
2023-02-24T21:51:27.234Z,84.02
2023-02-24T21:53:55.303Z,84.08
2023-02-24T21:56:25.772Z,84.01
2023-02-24T21:58:54.120Z,84.07
2023-02-24T22:01:25.162Z,84.08
2023-02-24T22:03:57.299Z,84.31
2023-02-24T22:06:31.343Z,84.16
2023-02-24T22:08:59.336Z,84.39
2023-02-24T22:11:26.793Z,84.39
2023-02-24T22:13:53.657Z,84.64
2023-02-24T22:16:22.890Z,84.56
2023-02-24T22:18:51.320Z,84.49
2023-02-24T22:21:21.081Z,84.68
2023-02-24T22:23:51.823Z,84.65
2023-02-24T22:26:22.402Z,84.40
2023-02-24T22:28:49.332Z,84.56
2023-02-24T22:31:18.682Z,84.58
2023-02-24T22:33:46.266Z,84.58
2023-02-24T22:36:16.621Z,84.54
2023-02-24T22:38:47.646Z,84.26
2023-02-24T22:41:17.328Z,84.07
2023-02-24T22:43:44.574Z,83.81
2023-02-24T22:46:14.188Z,83.65
2023-02-24T22:48:42.914Z,83.60
2023-02-24T22:51:11.728Z,83.70
2023-02-24T22:53:41.636Z,83.62
2023-02-24T22:56:12.738Z,83.63
2023-02-24T22:58:39.579Z,83.77
2023-02-24T23:01:11.430Z,83.68
2023-02-24T23:03:39.570Z,83.67
2023-02-24T23:06:15.896Z,83.66
2023-02-24T23:08:45.860Z,83.73
2023-02-24T23:11:14.438Z,83.61
2023-02-24T23:13:44.184Z,83.69
2023-02-24T23:16:14.415Z,83.63
2023-02-24T23:18:47.974Z,83.55
2023-02-24T23:21:15.529Z,83.45
2023-02-24T23:23:42.604Z,83.44
2023-02-24T23:26:10.854Z,83.50
2023-02-24T23:28:38.692Z,83.53
2023-02-24T23:31:06.663Z,83.63
2023-02-24T23:33:34.055Z,83.57
2023-02-24T23:36:06.226Z,83.59
2023-02-24T23:38:33.735Z,83.36
2023-02-24T23:41:00.761Z,83.41
2023-02-24T23:43:27.521Z,83.57
2023-02-24T23:45:55.089Z,83.63
2023-02-24T23:48:22.029Z,83.56
2023-02-24T23:50:50.644Z,83.67
2023-02-24T23:53:17.630Z,83.46
2023-02-24T23:55:44.350Z,83.53
2023-02-24T23:58:11.294Z,83.51
